sensor_id;sensor_type;location;lat;lon;timestamp;temperature;humidity
3208;DHT22;1616;52.394;9.756;2023-05-18T00:01:11;6.90;1.00
3208;DHT22;1616;52.394;9.756;2023-05-18T00:03:39;6.80;1.00
3208;DHT22;1616;52.394;9.756;2023-05-18T00:06:05;6.80;1.00
3208;DHT22;1616;52.394;9.756;2023-05-18T00:08:35;6.80;1.00
3208;DHT22;1616;52.394;9.756;2023-05-18T00:11:02;6.80;1.00
3208;DHT22;1616;52.394;9.756;2023-05-18T00:13:28;6.70;1.00
3208;DHT22;1616;52.394;9.756;2023-05-18T00:15:54;6.70;1.00
3208;DHT22;1616;52.394;9.756;2023-05-18T00:18:20;6.60;1.00
3208;DHT22;1616;52.394;9.756;2023-05-18T00:20:52;6.50;1.00
3208;DHT22;1616;52.394;9.756;2023-05-18T00:23:26;6.60;1.00
3208;DHT22;1616;52.394;9.756;2023-05-18T00:25:55;6.50;1.00
3208;DHT22;1616;52.394;9.756;2023-05-18T00:28:21;6.60;1.00
3208;DHT22;1616;52.394;9.756;2023-05-18T00:30:47;6.60;1.00
3208;DHT22;1616;52.394;9.756;2023-05-18T00:33:12;6.60;1.00
3208;DHT22;1616;52.394;9.756;2023-05-18T00:35:38;6.50;1.00
3208;DHT22;1616;52.394;9.756;2023-05-18T00:38:03;6.60;1.00
3208;DHT22;1616;52.394;9.756;2023-05-18T00:40:29;6.50;1.00
3208;DHT22;1616;52.394;9.756;2023-05-18T00:42:54;6.40;1.00
3208;DHT22;1616;52.394;9.756;2023-05-18T00:45:20;6.40;1.00
3208;DHT22;1616;52.394;9.756;2023-05-18T00:47:46;6.40;1.00
3208;DHT22;1616;52.394;9.756;2023-05-18T00:50:12;6.40;1.00
3208;DHT22;1616;52.394;9.756;2023-05-18T00:52:39;6.30;1.00
3208;DHT22;1616;52.394;9.756;2023-05-18T00:55:06;6.30;1.00
3208;DHT22;1616;52.394;9.756;2023-05-18T00:57:33;6.20;1.00
3208;DHT22;1616;52.394;9.756;2023-05-18T01:00:01;6.20;1.00
3208;DHT22;1616;52.394;9.756;2023-05-18T01:02:27;6.20;1.00
3208;DHT22;1616;52.394;9.756;2023-05-18T01:04:55;6.10;1.00
3208;DHT22;1616;52.394;9.756;2023-05-18T01:07:21;6.20;1.00
3208;DHT22;1616;52.394;9.756;2023-05-18T01:09:52;6.10;1.00
3208;DHT22;1616;52.394;9.756;2023-05-18T01:12:31;6.10;1.00
3208;DHT22;1616;52.394;9.756;2023-05-18T01:15:06;6.10;1.00
3208;DHT22;1616;52.394;9.756;2023-05-18T01:20:24;6.00;1.00
3208;DHT22;1616;52.394;9.756;2023-05-18T01:28:24;6.00;1.00
3208;DHT22;1616;52.394;9.756;2023-05-18T01:30:52;6.00;1.00
3208;DHT22;1616;52.394;9.756;2023-05-18T01:33:18;5.90;1.00
3208;DHT22;1616;52.394;9.756;2023-05-18T01:35:44;5.90;1.00
3208;DHT22;1616;52.394;9.756;2023-05-18T01:38:16;5.80;1.00
3208;DHT22;1616;52.394;9.756;2023-05-18T01:43:37;5.90;1.00
3208;DHT22;1616;52.394;9.756;2023-05-18T01:46:16;5.90;1.00
3208;DHT22;1616;52.394;9.756;2023-05-18T01:48:49;5.90;1.00
3208;DHT22;1616;52.394;9.756;2023-05-18T01:51:20;5.80;1.00
3208;DHT22;1616;52.394;9.756;2023-05-18T01:53:56;5.90;1.00
3208;DHT22;1616;52.394;9.756;2023-05-18T01:56:23;5.80;1.00
3208;DHT22;1616;52.394;9.756;2023-05-18T01:58:51;5.80;1.00
3208;DHT22;1616;52.394;9.756;2023-05-18T02:01:17;5.80;1.00
3208;DHT22;1616;52.394;9.756;2023-05-18T02:03:44;5.70;1.00
3208;DHT22;1616;52.394;9.756;2023-05-18T02:06:10;5.70;1.00
3208;DHT22;1616;52.394;9.756;2023-05-18T02:08:36;5.70;1.00
3208;DHT22;1616;52.394;9.756;2023-05-18T02:11:02;5.60;1.00
3208;DHT22;1616;52.394;9.756;2023-05-18T02:13:27;5.60;1.00
3208;DHT22;1616;52.394;9.756;2023-05-18T02:15:53;5.60;1.00
3208;DHT22;1616;52.394;9.756;2023-05-18T02:18:18;5.60;1.00
3208;DHT22;1616;52.394;9.756;2023-05-18T02:20:46;5.60;1.00
3208;DHT22;1616;52.394;9.756;2023-05-18T02:23:13;5.50;1.00
3208;DHT22;1616;52.394;9.756;2023-05-18T02:25:39;5.50;1.00
3208;DHT22;1616;52.394;9.756;2023-05-18T02:28:05;5.40;1.00
3208;DHT22;1616;52.394;9.756;2023-05-18T02:30:31;5.40;1.00
3208;DHT22;1616;52.394;9.756;2023-05-18T02:32:58;5.40;1.00
3208;DHT22;1616;52.394;9.756;2023-05-18T02:35:23;5.40;1.00
3208;DHT22;1616;52.394;9.756;2023-05-18T02:37:49;5.30;1.00
3208;DHT22;1616;52.394;9.756;2023-05-18T02:40:14;5.30;1.00
3208;DHT22;1616;52.394;9.756;2023-05-18T02:42:41;5.20;1.00
3208;DHT22;1616;52.394;9.756;2023-05-18T02:45:07;5.30;1.00
3208;DHT22;1616;52.394;9.756;2023-05-18T02:47:33;5.30;1.00
3208;DHT22;1616;52.394;9.756;2023-05-18T02:49:59;5.30;1.00
3208;DHT22;1616;52.394;9.756;2023-05-18T02:52:24;5.30;1.00
3208;DHT22;1616;52.394;9.756;2023-05-18T02:54:50;5.20;1.00
3208;DHT22;1616;52.394;9.756;2023-05-18T02:57:19;5.20;1.00
3208;DHT22;1616;52.394;9.756;2023-05-18T02:59:45;5.20;1.00
3208;DHT22;1616;52.394;9.756;2023-05-18T03:02:12;5.20;1.00
3208;DHT22;1616;52.394;9.756;2023-05-18T03:04:39;5.20;1.00
3208;DHT22;1616;52.394;9.756;2023-05-18T03:07:04;5.20;1.00
3208;DHT22;1616;52.394;9.756;2023-05-18T03:09:32;5.10;1.00
3208;DHT22;1616;52.394;9.756;2023-05-18T03:11:58;5.20;1.00
3208;DHT22;1616;52.394;9.756;2023-05-18T03:14:23;5.00;1.00
3208;DHT22;1616;52.394;9.756;2023-05-18T03:16:49;5.10;1.00
3208;DHT22;1616;52.394;9.756;2023-05-18T03:19:19;5.00;1.00
3208;DHT22;1616;52.394;9.756;2023-05-18T03:21:45;5.10;1.00
3208;DHT22;1616;52.394;9.756;2023-05-18T03:24:10;5.10;1.00
3208;DHT22;1616;52.394;9.756;2023-05-18T03:26:40;5.00;1.00
3208;DHT22;1616;52.394;9.756;2023-05-18T03:29:09;5.10;1.00
3208;DHT22;1616;52.394;9.756;2023-05-18T03:31:35;5.10;1.00
3208;DHT22;1616;52.394;9.756;2023-05-18T03:34:01;5.10;1.00
3208;DHT22;1616;52.394;9.756;2023-05-18T03:36:27;5.10;1.00
3208;DHT22;1616;52.394;9.756;2023-05-18T03:38:52;5.10;1.00
3208;DHT22;1616;52.394;9.756;2023-05-18T03:41:18;5.10;1.00
3208;DHT22;1616;52.394;9.756;2023-05-18T03:43:44;5.20;1.00
3208;DHT22;1616;52.394;9.756;2023-05-18T03:46:10;5.20;1.00
3208;DHT22;1616;52.394;9.756;2023-05-18T03:48:35;5.30;1.00
3208;DHT22;1616;52.394;9.756;2023-05-18T03:51:01;5.30;1.00
3208;DHT22;1616;52.394;9.756;2023-05-18T03:53:26;5.40;1.00
3208;DHT22;1616;52.394;9.756;2023-05-18T03:55:53;5.60;1.00
3208;DHT22;1616;52.394;9.756;2023-05-18T03:58:19;5.90;1.00
3208;DHT22;1616;52.394;9.756;2023-05-18T04:00:45;6.10;1.00
3208;DHT22;1616;52.394;9.756;2023-05-18T04:03:11;6.40;1.00
3208;DHT22;1616;52.394;9.756;2023-05-18T04:05:40;6.80;1.00
3208;DHT22;1616;52.394;9.756;2023-05-18T04:08:08;7.10;1.00
3208;DHT22;1616;52.394;9.756;2023-05-18T04:10:34;7.40;1.00
3208;DHT22;1616;52.394;9.756;2023-05-18T04:12:59;7.70;1.00
3208;DHT22;1616;52.394;9.756;2023-05-18T04:15:25;8.10;1.00
3208;DHT22;1616;52.394;9.756;2023-05-18T04:17:51;8.60;1.00
3208;DHT22;1616;52.394;9.756;2023-05-18T04:20:18;9.00;1.00
3208;DHT22;1616;52.394;9.756;2023-05-18T04:22:46;9.50;1.00
3208;DHT22;1616;52.394;9.756;2023-05-18T04:25:13;10.00;1.00
3208;DHT22;1616;52.394;9.756;2023-05-18T04:27:40;10.50;1.00
3208;DHT22;1616;52.394;9.756;2023-05-18T04:30:07;10.90;1.00
3208;DHT22;1616;52.394;9.756;2023-05-18T04:32:35;11.30;1.00
3208;DHT22;1616;52.394;9.756;2023-05-18T04:35:05;11.70;1.00
3208;DHT22;1616;52.394;9.756;2023-05-18T04:37:32;12.10;1.00
3208;DHT22;1616;52.394;9.756;2023-05-18T04:39:58;12.50;1.00
3208;DHT22;1616;52.394;9.756;2023-05-18T04:42:28;12.90;1.00
3208;DHT22;1616;52.394;9.756;2023-05-18T04:44:54;13.30;1.00
3208;DHT22;1616;52.394;9.756;2023-05-18T04:47:20;13.70;1.00
3208;DHT22;1616;52.394;9.756;2023-05-18T04:49:49;14.10;1.00
3208;DHT22;1616;52.394;9.756;2023-05-18T04:52:17;14.40;1.00
3208;DHT22;1616;52.394;9.756;2023-05-18T04:54:44;14.70;1.00
3208;DHT22;1616;52.394;9.756;2023-05-18T04:57:10;15.10;1.00
3208;DHT22;1616;52.394;9.756;2023-05-18T04:59:36;15.40;1.00
3208;DHT22;1616;52.394;9.756;2023-05-18T05:02:04;15.80;1.00
3208;DHT22;1616;52.394;9.756;2023-05-18T05:04:30;16.00;1.00
3208;DHT22;1616;52.394;9.756;2023-05-18T05:06:57;16.30;1.00
3208;DHT22;1616;52.394;9.756;2023-05-18T05:09:23;16.60;1.00
3208;DHT22;1616;52.394;9.756;2023-05-18T05:11:48;17.00;1.00
3208;DHT22;1616;52.394;9.756;2023-05-18T05:14:14;17.60;1.00
3208;DHT22;1616;52.394;9.756;2023-05-18T05:16:40;18.30;1.00
3208;DHT22;1616;52.394;9.756;2023-05-18T05:19:05;19.00;1.00
3208;DHT22;1616;52.394;9.756;2023-05-18T05:21:31;19.50;1.00
3208;DHT22;1616;52.394;9.756;2023-05-18T05:23:57;20.00;1.00
3208;DHT22;1616;52.394;9.756;2023-05-18T05:26:23;20.40;1.00
3208;DHT22;1616;52.394;9.756;2023-05-18T05:28:48;20.70;1.00
3208;DHT22;1616;52.394;9.756;2023-05-18T05:31:14;20.80;1.00
3208;DHT22;1616;52.394;9.756;2023-05-18T05:33:40;20.80;1.00
3208;DHT22;1616;52.394;9.756;2023-05-18T05:36:06;20.90;1.00
3208;DHT22;1616;52.394;9.756;2023-05-18T05:38:33;20.90;1.00
3208;DHT22;1616;52.394;9.756;2023-05-18T05:40:59;21.00;1.00
3208;DHT22;1616;52.394;9.756;2023-05-18T05:43:24;21.10;1.00
3208;DHT22;1616;52.394;9.756;2023-05-18T05:45:50;21.20;1.00
3208;DHT22;1616;52.394;9.756;2023-05-18T05:48:16;21.40;1.00
3208;DHT22;1616;52.394;9.756;2023-05-18T05:50:42;21.50;1.00
3208;DHT22;1616;52.394;9.756;2023-05-18T05:53:07;21.80;1.00
3208;DHT22;1616;52.394;9.756;2023-05-18T05:55:34;21.90;1.00
3208;DHT22;1616;52.394;9.756;2023-05-18T05:58:08;22.00;1.00
3208;DHT22;1616;52.394;9.756;2023-05-18T06:00:34;22.20;1.00
3208;DHT22;1616;52.394;9.756;2023-05-18T06:03:00;22.30;1.00
3208;DHT22;1616;52.394;9.756;2023-05-18T06:05:26;22.30;1.00
3208;DHT22;1616;52.394;9.756;2023-05-18T06:07:51;22.40;1.00
3208;DHT22;1616;52.394;9.756;2023-05-18T06:10:17;22.60;1.00
3208;DHT22;1616;52.394;9.756;2023-05-18T06:12:42;23.00;1.00
3208;DHT22;1616;52.394;9.756;2023-05-18T06:15:09;23.40;1.00
3208;DHT22;1616;52.394;9.756;2023-05-18T06:17:34;23.80;1.00
3208;DHT22;1616;52.394;9.756;2023-05-18T06:20:00;24.00;1.00
3208;DHT22;1616;52.394;9.756;2023-05-18T06:22:26;24.20;1.00
3208;DHT22;1616;52.394;9.756;2023-05-18T06:24:52;24.50;1.00
3208;DHT22;1616;52.394;9.756;2023-05-18T06:27:18;24.70;1.00
3208;DHT22;1616;52.394;9.756;2023-05-18T06:29:43;24.80;1.00
3208;DHT22;1616;52.394;9.756;2023-05-18T06:32:12;24.80;1.00
3208;DHT22;1616;52.394;9.756;2023-05-18T06:34:37;24.80;1.00
3208;DHT22;1616;52.394;9.756;2023-05-18T06:37:04;24.70;1.00
3208;DHT22;1616;52.394;9.756;2023-05-18T06:39:30;24.60;1.00
3208;DHT22;1616;52.394;9.756;2023-05-18T06:41:55;24.50;1.00
3208;DHT22;1616;52.394;9.756;2023-05-18T06:44:21;24.40;1.00
3208;DHT22;1616;52.394;9.756;2023-05-18T06:46:47;24.30;1.00
3208;DHT22;1616;52.394;9.756;2023-05-18T06:49:13;24.30;1.00
3208;DHT22;1616;52.394;9.756;2023-05-18T06:51:39;24.20;1.00
3208;DHT22;1616;52.394;9.756;2023-05-18T06:54:06;24.00;1.00
3208;DHT22;1616;52.394;9.756;2023-05-18T06:56:32;24.00;1.00
3208;DHT22;1616;52.394;9.756;2023-05-18T06:58:58;24.00;1.00
3208;DHT22;1616;52.394;9.756;2023-05-18T07:01:23;23.90;1.00
3208;DHT22;1616;52.394;9.756;2023-05-18T07:03:49;24.10;1.00
3208;DHT22;1616;52.394;9.756;2023-05-18T07:06:15;24.20;1.00
3208;DHT22;1616;52.394;9.756;2023-05-18T07:08:40;24.30;1.00
3208;DHT22;1616;52.394;9.756;2023-05-18T07:11:06;24.40;1.00
3208;DHT22;1616;52.394;9.756;2023-05-18T07:13:31;24.50;1.00
3208;DHT22;1616;52.394;9.756;2023-05-18T07:15:57;24.60;1.00
3208;DHT22;1616;52.394;9.756;2023-05-18T07:18:24;24.70;1.00
3208;DHT22;1616;52.394;9.756;2023-05-18T07:20:51;25.30;1.00
3208;DHT22;1616;52.394;9.756;2023-05-18T07:23:16;25.00;1.00
3208;DHT22;1616;52.394;9.756;2023-05-18T07:25:42;25.00;1.00
3208;DHT22;1616;52.394;9.756;2023-05-18T07:28:08;25.00;1.00
3208;DHT22;1616;52.394;9.756;2023-05-18T07:30:33;25.00;1.00
3208;DHT22;1616;52.394;9.756;2023-05-18T07:32:59;25.00;1.00
3208;DHT22;1616;52.394;9.756;2023-05-18T07:35:25;25.00;1.00
3208;DHT22;1616;52.394;9.756;2023-05-18T07:37:52;24.80;1.00
3208;DHT22;1616;52.394;9.756;2023-05-18T07:40:19;24.70;1.00
3208;DHT22;1616;52.394;9.756;2023-05-18T07:42:45;24.70;1.00
3208;DHT22;1616;52.394;9.756;2023-05-18T07:45:11;24.80;1.00
3208;DHT22;1616;52.394;9.756;2023-05-18T07:47:37;24.80;1.00
3208;DHT22;1616;52.394;9.756;2023-05-18T07:50:03;25.10;1.00
3208;DHT22;1616;52.394;9.756;2023-05-18T07:52:29;25.30;1.00
3208;DHT22;1616;52.394;9.756;2023-05-18T07:54:55;25.50;1.00
3208;DHT22;1616;52.394;9.756;2023-05-18T07:57:24;25.50;1.00
3208;DHT22;1616;52.394;9.756;2023-05-18T07:59:50;25.60;1.00
3208;DHT22;1616;52.394;9.756;2023-05-18T08:02:16;25.80;1.00
3208;DHT22;1616;52.394;9.756;2023-05-18T08:04:44;25.80;1.00
3208;DHT22;1616;52.394;9.756;2023-05-18T08:07:10;25.90;1.00
3208;DHT22;1616;52.394;9.756;2023-05-18T08:09:37;25.90;1.00
3208;DHT22;1616;52.394;9.756;2023-05-18T08:12:03;26.00;1.00
3208;DHT22;1616;52.394;9.756;2023-05-18T08:14:29;26.10;1.00
3208;DHT22;1616;52.394;9.756;2023-05-18T08:16:54;26.10;1.00
3208;DHT22;1616;52.394;9.756;2023-05-18T08:19:20;25.80;1.00
3208;DHT22;1616;52.394;9.756;2023-05-18T08:21:46;25.20;1.00
3208;DHT22;1616;52.394;9.756;2023-05-18T08:24:11;24.80;1.00
3208;DHT22;1616;52.394;9.756;2023-05-18T08:26:37;24.60;1.00
3208;DHT22;1616;52.394;9.756;2023-05-18T08:29:03;24.20;1.00
3208;DHT22;1616;52.394;9.756;2023-05-18T08:31:36;23.60;1.00
3208;DHT22;1616;52.394;9.756;2023-05-18T08:34:05;23.00;1.00
3208;DHT22;1616;52.394;9.756;2023-05-18T08:36:33;22.40;1.00
3208;DHT22;1616;52.394;9.756;2023-05-18T08:38:59;22.10;1.00
3208;DHT22;1616;52.394;9.756;2023-05-18T08:41:39;21.80;1.00
3208;DHT22;1616;52.394;9.756;2023-05-18T08:44:15;21.70;1.00
3208;DHT22;1616;52.394;9.756;2023-05-18T08:46:41;22.00;1.00
3208;DHT22;1616;52.394;9.756;2023-05-18T08:49:16;22.20;1.00
3208;DHT22;1616;52.394;9.756;2023-05-18T08:51:44;22.60;1.00
3208;DHT22;1616;52.394;9.756;2023-05-18T08:54:10;23.00;1.00
3208;DHT22;1616;52.394;9.756;2023-05-18T08:56:40;23.20;1.00
3208;DHT22;1616;52.394;9.756;2023-05-18T08:59:06;23.80;1.00
3208;DHT22;1616;52.394;9.756;2023-05-18T09:01:34;24.30;1.00
3208;DHT22;1616;52.394;9.756;2023-05-18T09:04:01;24.90;1.00
3208;DHT22;1616;52.394;9.756;2023-05-18T09:06:27;25.50;1.00
3208;DHT22;1616;52.394;9.756;2023-05-18T09:08:54;25.90;1.00
3208;DHT22;1616;52.394;9.756;2023-05-18T09:11:21;26.00;1.00
3208;DHT22;1616;52.394;9.756;2023-05-18T09:13:49;25.80;1.00
3208;DHT22;1616;52.394;9.756;2023-05-18T09:16:15;25.40;1.00
3208;DHT22;1616;52.394;9.756;2023-05-18T09:18:41;24.90;1.00
3208;DHT22;1616;52.394;9.756;2023-05-18T09:21:07;24.40;1.00
3208;DHT22;1616;52.394;9.756;2023-05-18T09:23:33;23.80;1.00
3208;DHT22;1616;52.394;9.756;2023-05-18T09:25:59;23.50;1.00
3208;DHT22;1616;52.394;9.756;2023-05-18T09:28:28;23.40;1.00
3208;DHT22;1616;52.394;9.756;2023-05-18T09:30:55;23.10;1.00
3208;DHT22;1616;52.394;9.756;2023-05-18T09:33:21;22.90;1.00
3208;DHT22;1616;52.394;9.756;2023-05-18T09:35:49;22.60;1.00
3208;DHT22;1616;52.394;9.756;2023-05-18T09:38:17;22.40;1.00
3208;DHT22;1616;52.394;9.756;2023-05-18T09:40:48;22.40;1.00
3208;DHT22;1616;52.394;9.756;2023-05-18T09:43:17;22.30;1.00
3208;DHT22;1616;52.394;9.756;2023-05-18T09:45:45;22.20;1.00
3208;DHT22;1616;52.394;9.756;2023-05-18T09:48:12;21.90;1.00
3208;DHT22;1616;52.394;9.756;2023-05-18T09:50:38;21.70;1.00
3208;DHT22;1616;52.394;9.756;2023-05-18T09:53:08;21.40;1.00
3208;DHT22;1616;52.394;9.756;2023-05-18T09:55:44;21.10;1.00
3208;DHT22;1616;52.394;9.756;2023-05-18T09:58:10;20.90;1.00
3208;DHT22;1616;52.394;9.756;2023-05-18T10:01:02;20.90;1.00
3208;DHT22;1616;52.394;9.756;2023-05-18T10:03:35;21.00;1.00
3208;DHT22;1616;52.394;9.756;2023-05-18T10:06:07;21.00;1.00
3208;DHT22;1616;52.394;9.756;2023-05-18T10:08:34;21.10;1.00
3208;DHT22;1616;52.394;9.756;2023-05-18T10:11:00;21.20;1.00
3208;DHT22;1616;52.394;9.756;2023-05-18T10:13:27;21.20;1.00
3208;DHT22;1616;52.394;9.756;2023-05-18T10:15:59;21.40;1.00
3208;DHT22;1616;52.394;9.756;2023-05-18T10:18:30;21.80;1.00
3208;DHT22;1616;52.394;9.756;2023-05-18T10:20:58;22.30;1.00
3208;DHT22;1616;52.394;9.756;2023-05-18T10:23:25;23.00;1.00
3208;DHT22;1616;52.394;9.756;2023-05-18T10:25:52;23.40;1.00
3208;DHT22;1616;52.394;9.756;2023-05-18T10:28:25;23.70;1.00
3208;DHT22;1616;52.394;9.756;2023-05-18T10:30:54;24.40;1.00
3208;DHT22;1616;52.394;9.756;2023-05-18T10:33:22;25.30;1.00
3208;DHT22;1616;52.394;9.756;2023-05-18T10:35:49;25.60;1.00
3208;DHT22;1616;52.394;9.756;2023-05-18T10:38:23;25.50;1.00
3208;DHT22;1616;52.394;9.756;2023-05-18T10:40:51;25.00;1.00
3208;DHT22;1616;52.394;9.756;2023-05-18T10:43:19;24.30;1.00
3208;DHT22;1616;52.394;9.756;2023-05-18T10:45:48;23.80;1.00
3208;DHT22;1616;52.394;9.756;2023-05-18T10:48:16;23.80;1.00
3208;DHT22;1616;52.394;9.756;2023-05-18T10:50:43;24.20;1.00
3208;DHT22;1616;52.394;9.756;2023-05-18T10:53:09;24.30;1.00
3208;DHT22;1616;52.394;9.756;2023-05-18T10:55:35;24.30;1.00
3208;DHT22;1616;52.394;9.756;2023-05-18T10:58:06;24.30;1.00
3208;DHT22;1616;52.394;9.756;2023-05-18T11:00:35;24.20;1.00
3208;DHT22;1616;52.394;9.756;2023-05-18T11:03:07;23.90;1.00
3208;DHT22;1616;52.394;9.756;2023-05-18T11:05:33;23.60;1.00
3208;DHT22;1616;52.394;9.756;2023-05-18T11:08:02;23.40;1.00
3208;DHT22;1616;52.394;9.756;2023-05-18T11:10:43;23.60;1.00
3208;DHT22;1616;52.394;9.756;2023-05-18T11:13:12;23.90;1.00
3208;DHT22;1616;52.394;9.756;2023-05-18T11:18:35;24.80;1.00
3208;DHT22;1616;52.394;9.756;2023-05-18T11:21:01;24.60;1.00
3208;DHT22;1616;52.394;9.756;2023-05-18T11:23:31;24.50;1.00
3208;DHT22;1616;52.394;9.756;2023-05-18T11:26:00;25.00;1.00
3208;DHT22;1616;52.394;9.756;2023-05-18T11:28:29;25.70;1.00
3208;DHT22;1616;52.394;9.756;2023-05-18T11:30:55;26.40;1.00
3208;DHT22;1616;52.394;9.756;2023-05-18T11:33:24;27.10;1.00
3208;DHT22;1616;52.394;9.756;2023-05-18T11:36:09;27.60;1.00
3208;DHT22;1616;52.394;9.756;2023-05-18T11:39:05;28.00;1.00
3208;DHT22;1616;52.394;9.756;2023-05-18T11:41:40;28.40;1.00
3208;DHT22;1616;52.394;9.756;2023-05-18T11:44:22;28.60;1.00
3208;DHT22;1616;52.394;9.756;2023-05-18T11:49:29;28.90;1.00
3208;DHT22;1616;52.394;9.756;2023-05-18T11:52:06;29.20;1.00
3208;DHT22;1616;52.394;9.756;2023-05-18T11:54:33;29.50;1.00
3208;DHT22;1616;52.394;9.756;2023-05-18T11:56:59;29.50;1.00
3208;DHT22;1616;52.394;9.756;2023-05-18T11:59:39;29.40;1.00
3208;DHT22;1616;52.394;9.756;2023-05-18T12:02:06;29.20;1.00
3208;DHT22;1616;52.394;9.756;2023-05-18T12:04:32;29.10;1.00
3208;DHT22;1616;52.394;9.756;2023-05-18T12:06:59;28.80;1.00
3208;DHT22;1616;52.394;9.756;2023-05-18T12:09:29;28.70;1.00
3208;DHT22;1616;52.394;9.756;2023-05-18T12:11:56;28.70;1.00
3208;DHT22;1616;52.394;9.756;2023-05-18T12:14:23;28.80;1.00
3208;DHT22;1616;52.394;9.756;2023-05-18T12:16:49;28.80;1.00
3208;DHT22;1616;52.394;9.756;2023-05-18T12:19:16;28.90;1.00
3208;DHT22;1616;52.394;9.756;2023-05-18T12:21:44;28.80;1.00
3208;DHT22;1616;52.394;9.756;2023-05-18T12:24:10;28.80;1.00
3208;DHT22;1616;52.394;9.756;2023-05-18T12:26:36;28.60;1.00
3208;DHT22;1616;52.394;9.756;2023-05-18T12:29:03;28.30;1.00
3208;DHT22;1616;52.394;9.756;2023-05-18T12:31:28;28.10;1.00
3208;DHT22;1616;52.394;9.756;2023-05-18T12:33:55;27.90;1.00
3208;DHT22;1616;52.394;9.756;2023-05-18T12:36:21;28.00;1.00
3208;DHT22;1616;52.394;9.756;2023-05-18T12:38:48;28.00;1.00
3208;DHT22;1616;52.394;9.756;2023-05-18T12:41:25;28.00;1.00
3208;DHT22;1616;52.394;9.756;2023-05-18T12:43:52;28.00;1.00
3208;DHT22;1616;52.394;9.756;2023-05-18T12:46:22;28.40;1.00
3208;DHT22;1616;52.394;9.756;2023-05-18T12:48:56;27.70;1.00
3208;DHT22;1616;52.394;9.756;2023-05-18T12:51:23;27.40;1.00
3208;DHT22;1616;52.394;9.756;2023-05-18T12:53:55;27.00;1.00
3208;DHT22;1616;52.394;9.756;2023-05-18T12:56:21;26.70;1.00
3208;DHT22;1616;52.394;9.756;2023-05-18T12:58:59;26.60;1.00
3208;DHT22;1616;52.394;9.756;2023-05-18T13:01:26;26.30;1.00
3208;DHT22;1616;52.394;9.756;2023-05-18T13:03:56;25.90;1.00
3208;DHT22;1616;52.394;9.756;2023-05-18T13:06:25;25.40;1.00
3208;DHT22;1616;52.394;9.756;2023-05-18T13:08:54;25.00;1.00
3208;DHT22;1616;52.394;9.756;2023-05-18T13:11:24;24.70;1.00
3208;DHT22;1616;52.394;9.756;2023-05-18T13:14:04;24.40;1.00
3208;DHT22;1616;52.394;9.756;2023-05-18T13:16:32;24.20;1.00
3208;DHT22;1616;52.394;9.756;2023-05-18T13:19:02;23.90;1.00
3208;DHT22;1616;52.394;9.756;2023-05-18T13:21:28;23.80;1.00
3208;DHT22;1616;52.394;9.756;2023-05-18T13:23:54;23.50;1.00
3208;DHT22;1616;52.394;9.756;2023-05-18T13:26:21;23.30;1.00
3208;DHT22;1616;52.394;9.756;2023-05-18T13:28:49;23.00;1.00
3208;DHT22;1616;52.394;9.756;2023-05-18T13:31:17;22.80;1.00
3208;DHT22;1616;52.394;9.756;2023-05-18T13:33:43;22.70;1.00
3208;DHT22;1616;52.394;9.756;2023-05-18T13:36:08;22.50;1.00
3208;DHT22;1616;52.394;9.756;2023-05-18T13:38:34;22.30;1.00
3208;DHT22;1616;52.394;9.756;2023-05-18T13:41:04;22.20;1.00
3208;DHT22;1616;52.394;9.756;2023-05-18T13:43:31;22.10;1.00
3208;DHT22;1616;52.394;9.756;2023-05-18T13:45:57;21.90;1.00
3208;DHT22;1616;52.394;9.756;2023-05-18T13:48:23;21.80;1.00
3208;DHT22;1616;52.394;9.756;2023-05-18T13:50:49;21.70;1.00
3208;DHT22;1616;52.394;9.756;2023-05-18T13:53:15;21.60;1.00
3208;DHT22;1616;52.394;9.756;2023-05-18T13:55:40;21.60;1.00
3208;DHT22;1616;52.394;9.756;2023-05-18T13:58:06;21.50;1.00
3208;DHT22;1616;52.394;9.756;2023-05-18T14:00:32;21.50;1.00
3208;DHT22;1616;52.394;9.756;2023-05-18T14:02:58;21.30;1.00
3208;DHT22;1616;52.394;9.756;2023-05-18T14:05:24;21.10;1.00
3208;DHT22;1616;52.394;9.756;2023-05-18T14:07:50;21.00;1.00
3208;DHT22;1616;52.394;9.756;2023-05-18T14:10:19;20.90;1.00
3208;DHT22;1616;52.394;9.756;2023-05-18T14:12:45;20.60;1.00
3208;DHT22;1616;52.394;9.756;2023-05-18T14:15:12;20.50;1.00
3208;DHT22;1616;52.394;9.756;2023-05-18T14:17:38;20.50;1.00
3208;DHT22;1616;52.394;9.756;2023-05-18T14:20:04;20.40;1.00
3208;DHT22;1616;52.394;9.756;2023-05-18T14:22:31;20.50;1.00
3208;DHT22;1616;52.394;9.756;2023-05-18T14:24:56;20.50;1.00
3208;DHT22;1616;52.394;9.756;2023-05-18T14:27:22;20.50;1.00
3208;DHT22;1616;52.394;9.756;2023-05-18T14:29:49;20.40;1.00
3208;DHT22;1616;52.394;9.756;2023-05-18T14:32:15;20.20;1.00
3208;DHT22;1616;52.394;9.756;2023-05-18T14:34:41;20.10;1.00
3208;DHT22;1616;52.394;9.756;2023-05-18T14:37:07;20.10;1.00
3208;DHT22;1616;52.394;9.756;2023-05-18T14:39:32;20.00;1.00
3208;DHT22;1616;52.394;9.756;2023-05-18T14:41:58;19.90;1.00
3208;DHT22;1616;52.394;9.756;2023-05-18T14:44:23;19.80;1.00
3208;DHT22;1616;52.394;9.756;2023-05-18T14:46:49;19.80;1.00
3208;DHT22;1616;52.394;9.756;2023-05-18T14:49:15;19.90;1.00
3208;DHT22;1616;52.394;9.756;2023-05-18T14:51:40;19.80;1.00
3208;DHT22;1616;52.394;9.756;2023-05-18T14:54:06;19.70;1.00
3208;DHT22;1616;52.394;9.756;2023-05-18T14:56:31;19.70;1.00
3208;DHT22;1616;52.394;9.756;2023-05-18T14:58:57;19.60;1.00
3208;DHT22;1616;52.394;9.756;2023-05-18T15:01:23;19.60;1.00
3208;DHT22;1616;52.394;9.756;2023-05-18T15:03:48;19.40;1.00
3208;DHT22;1616;52.394;9.756;2023-05-18T15:06:14;19.50;1.00
3208;DHT22;1616;52.394;9.756;2023-05-18T15:08:39;19.40;1.00
3208;DHT22;1616;52.394;9.756;2023-05-18T15:11:05;19.40;1.00
3208;DHT22;1616;52.394;9.756;2023-05-18T15:13:31;19.40;1.00
3208;DHT22;1616;52.394;9.756;2023-05-18T15:15:57;19.40;1.00
3208;DHT22;1616;52.394;9.756;2023-05-18T15:18:23;19.40;1.00
3208;DHT22;1616;52.394;9.756;2023-05-18T15:20:48;19.40;1.00
3208;DHT22;1616;52.394;9.756;2023-05-18T15:23:14;19.50;1.00
3208;DHT22;1616;52.394;9.756;2023-05-18T15:25:40;19.50;1.00
3208;DHT22;1616;52.394;9.756;2023-05-18T15:28:06;19.60;1.00
3208;DHT22;1616;52.394;9.756;2023-05-18T15:30:32;19.50;1.00
3208;DHT22;1616;52.394;9.756;2023-05-18T15:32:58;19.50;1.00
3208;DHT22;1616;52.394;9.756;2023-05-18T15:35:27;19.50;1.00
3208;DHT22;1616;52.394;9.756;2023-05-18T15:37:54;19.50;1.00
3208;DHT22;1616;52.394;9.756;2023-05-18T15:40:19;19.40;1.00
3208;DHT22;1616;52.394;9.756;2023-05-18T15:42:45;19.50;1.00
3208;DHT22;1616;52.394;9.756;2023-05-18T15:45:11;19.50;1.00
3208;DHT22;1616;52.394;9.756;2023-05-18T15:47:36;19.60;1.00
3208;DHT22;1616;52.394;9.756;2023-05-18T15:50:02;19.60;1.00
3208;DHT22;1616;52.394;9.756;2023-05-18T15:52:28;19.60;1.00
3208;DHT22;1616;52.394;9.756;2023-05-18T15:54:54;19.70;1.00
3208;DHT22;1616;52.394;9.756;2023-05-18T15:57:19;19.80;1.00
3208;DHT22;1616;52.394;9.756;2023-05-18T15:59:47;19.80;1.00
3208;DHT22;1616;52.394;9.756;2023-05-18T16:02:12;19.80;1.00
3208;DHT22;1616;52.394;9.756;2023-05-18T16:04:38;19.80;1.00
3208;DHT22;1616;52.394;9.756;2023-05-18T16:07:04;19.90;1.00
3208;DHT22;1616;52.394;9.756;2023-05-18T16:09:30;19.90;1.00
3208;DHT22;1616;52.394;9.756;2023-05-18T16:11:55;19.90;1.00
3208;DHT22;1616;52.394;9.756;2023-05-18T16:14:21;19.90;1.00
3208;DHT22;1616;52.394;9.756;2023-05-18T16:16:46;19.90;1.00
3208;DHT22;1616;52.394;9.756;2023-05-18T16:19:12;19.80;1.00
3208;DHT22;1616;52.394;9.756;2023-05-18T16:21:37;19.70;1.00
3208;DHT22;1616;52.394;9.756;2023-05-18T16:24:04;19.60;1.00
3208;DHT22;1616;52.394;9.756;2023-05-18T16:26:32;19.50;1.00
3208;DHT22;1616;52.394;9.756;2023-05-18T16:28:58;19.40;1.00
3208;DHT22;1616;52.394;9.756;2023-05-18T16:31:24;19.30;1.00
3208;DHT22;1616;52.394;9.756;2023-05-18T16:33:50;19.20;1.00
3208;DHT22;1616;52.394;9.756;2023-05-18T16:36:15;19.20;1.00
3208;DHT22;1616;52.394;9.756;2023-05-18T16:38:41;19.00;1.00